createdAt,value
2022-09-12T00:06:22.608Z,101576.75
2022-09-12T00:16:24.564Z,101563.34
2022-09-12T00:26:25.924Z,101558.75
2022-09-12T00:36:27.129Z,101554.44
2022-09-12T00:46:28.399Z,101544.84
2022-09-12T00:56:29.661Z,101551.41
2022-09-12T01:06:30.889Z,101528.38
2022-09-12T01:16:32.167Z,101519.78
2022-09-12T01:26:33.395Z,101520.28
2022-09-12T01:36:34.700Z,101512.19
2022-09-12T01:46:35.956Z,101507.38
2022-09-12T01:56:37.179Z,101494.97
2022-09-12T02:06:38.393Z,101471.72
2022-09-12T02:16:39.685Z,101470.94
2022-09-12T02:26:41.025Z,101474.53
2022-09-12T02:36:42.260Z,101473.25
2022-09-12T02:46:43.535Z,101466.66
2022-09-12T02:56:44.747Z,101464.91
2022-09-12T03:06:45.972Z,101454.00
2022-09-12T03:16:47.272Z,101443.41
2022-09-12T03:26:48.546Z,101438.34
2022-09-12T03:36:49.779Z,101439.84
2022-09-12T03:46:51.011Z,101433.25
2022-09-12T03:56:52.226Z,101427.19
2022-09-12T04:06:53.454Z,101420.88
2022-09-12T04:16:54.716Z,101417.34
2022-09-12T04:26:56.000Z,101405.94
2022-09-12T04:36:57.235Z,101405.00
2022-09-12T04:46:58.481Z,101385.25
2022-09-12T04:56:59.708Z,101397.59
2022-09-12T05:07:00.955Z,101397.59
2022-09-12T05:17:02.340Z,101395.59
2022-09-12T05:27:03.643Z,101401.16
2022-09-12T05:37:04.888Z,101403.69
2022-09-12T05:47:06.229Z,101394.31
2022-09-12T05:57:07.546Z,101407.44
2022-09-12T06:07:08.782Z,101427.69
2022-09-12T06:17:10.035Z,101421.13
2022-09-12T06:27:11.261Z,101419.56
2022-09-12T06:37:12.625Z,101408.69
2022-09-12T06:47:14.000Z,101411.72
2022-09-12T06:57:15.264Z,101411.47
2022-09-12T07:07:16.667Z,101409.69
2022-09-12T07:17:19.131Z,101415.44
2022-09-12T07:27:20.367Z,101397.19
2022-09-12T07:37:23.276Z,101397.91
2022-09-12T07:47:31.119Z,101411.53
2022-09-12T07:57:39.910Z,101410.22
2022-09-12T08:07:47.992Z,101401.13
2022-09-12T08:17:55.963Z,101413.06
2022-09-12T08:28:03.957Z,101421.94
2022-09-12T08:38:14.860Z,101427.97
2022-09-12T08:48:22.919Z,101428.25
2022-09-12T08:58:31.012Z,101417.66
2022-09-12T09:08:41.158Z,101410.28
2022-09-12T09:18:45.320Z,101401.41
2022-09-12T09:28:55.719Z,101397.38
2022-09-12T09:39:02.971Z,101391.81
2022-09-12T09:49:10.953Z,101382.16
2022-09-12T09:59:18.967Z,101362.91
2022-09-12T10:09:26.914Z,101358.59
2022-09-12T10:19:35.022Z,101343.66
2022-09-12T10:29:43.991Z,101319.09
2022-09-12T10:39:54.322Z,101318.06
2022-09-12T10:50:01.969Z,101304.66
2022-09-12T11:00:08.049Z,101290.72
2022-09-12T11:10:16.988Z,101281.31
2022-09-12T11:20:24.998Z,101281.03
2022-09-12T11:30:34.049Z,101276.97
2022-09-12T11:40:46.184Z,101263.28
2022-09-12T11:50:51.127Z,101268.34
2022-09-12T12:00:58.020Z,101277.69
2022-09-12T12:11:06.041Z,101266.03
2022-09-12T12:21:17.031Z,101250.84
2022-09-12T12:31:25.048Z,101251.84
2022-09-12T12:41:35.799Z,101241.69
2022-09-12T12:51:37.257Z,101224.72
2022-09-12T13:01:51.514Z,101214.56
2022-09-12T13:11:56.122Z,101209.47
2022-09-12T13:22:03.827Z,101196.06
2022-09-12T13:32:13.022Z,101183.84
2022-09-12T13:42:21.159Z,101181.59
2022-09-12T13:52:28.730Z,101176.78
2022-09-12T14:02:37.112Z,101161.56
2022-09-12T14:12:44.859Z,101148.84
2022-09-12T14:22:54.031Z,101141.25
2022-09-12T14:33:01.994Z,101129.63
2022-09-12T14:43:09.274Z,101116.16
2022-09-12T14:53:19.347Z,101115.38
2022-09-12T15:03:27.016Z,101112.88
2022-09-12T15:13:34.997Z,101098.81
2022-09-12T15:23:44.244Z,101083.16
2022-09-12T15:33:53.418Z,101080.16
2022-09-12T15:44:01.023Z,101077.91
2022-09-12T15:54:08.006Z,101079.16
2022-09-12T16:04:15.862Z,101070.56
2022-09-12T16:14:24.009Z,101041.66
2022-09-12T16:24:34.097Z,101046.47
2022-09-12T16:34:42.054Z,101050.75
2022-09-12T16:44:54.207Z,101031.53
2022-09-12T16:54:59.114Z,101022.22
2022-09-12T17:05:07.206Z,101013.84
2022-09-12T17:15:15.123Z,100991.56
2022-09-12T17:25:23.032Z,100973.09
2022-09-12T17:35:31.197Z,100951.53
2022-09-12T17:45:39.201Z,100962.19
2022-09-12T17:55:40.524Z,100975.13
2022-09-12T18:05:41.842Z,100963.00
2022-09-12T18:15:43.118Z,100974.16
2022-09-12T18:25:44.407Z,100971.38
2022-09-12T18:35:45.919Z,100986.03
2022-09-12T18:45:47.213Z,100996.97
2022-09-12T18:55:48.437Z,100992.97
2022-09-12T19:05:49.761Z,100970.66
2022-09-12T19:15:51.144Z,100959.06
2022-09-12T19:25:52.525Z,100948.38
2022-09-12T19:35:53.883Z,100959.00
2022-09-12T19:45:55.244Z,100947.91
2022-09-12T19:55:56.631Z,100958.81
2022-09-12T20:05:57.888Z,100949.69
2022-09-12T20:15:59.370Z,100931.47
2022-09-12T20:26:00.798Z,100921.31
2022-09-12T20:36:02.031Z,100914.25
2022-09-12T20:46:03.336Z,100913.72
2022-09-12T20:56:04.765Z,100917.03
2022-09-12T21:06:06.114Z,100920.34
2022-09-12T21:16:07.508Z,100893.25
2022-09-12T21:26:08.833Z,100918.84
2022-09-12T21:36:10.165Z,100943.38
2022-09-12T21:46:11.462Z,100941.88
2022-09-12T21:56:12.725Z,100954.53
2022-09-12T22:06:14.005Z,100950.75
2022-09-12T22:16:15.297Z,100947.00
2022-09-12T22:26:16.630Z,100944.75
2022-09-12T22:36:17.889Z,100925.00
2022-09-12T22:46:19.202Z,100924.72
2022-09-12T22:56:20.464Z,100920.19
2022-09-12T23:06:21.720Z,100903.91
2022-09-12T23:16:22.952Z,100896.63
2022-09-12T23:26:24.215Z,100882.47
2022-09-12T23:36:25.429Z,100883.22
2022-09-12T23:46:26.668Z,100865.97
2022-09-12T23:56:27.932Z,100868.53
